| time (UTC) | temp F | wind direction | speed MPH | gust MPH | rain 1hr in | rain 24hr in | rain mn in | humidity % | barometer mb |
| 20260905003057 | 87 | 134 | 7.0 | 14.0 | 0.00 | 0.01 | 0.01 | 68 | 1014.4 |
| 20260905002334 | 88 | 135 | 9.0 | 16.0 | 0.00 | 0.01 | 0.01 | 67 | 1014.4 |
| 20260905001834 | 89 | 99 | 9.0 | 16.0 | 0.00 | 0.01 | 0.01 | 66 | 1014.3 |
| 20260905001334 | 89 | 130 | 8.0 | 16.0 | 0.00 | 0.01 | 0.01 | 65 | 1014.3 |
| 20260905000834 | 90 | 96 | 7.0 | 16.0 | 0.00 | 0.01 | 0.01 | 63 | 1014.2 |
| 20260905000333 | 91 | 123 | 6.0 | 14.0 | 0.00 | 0.01 | 0.01 | 62 | 1014.0 |
| 20260905000057 | 91 | 105 | 5.0 | 14.0 | 0.00 | 0.01 | 0.01 | 54 | 1013.9 |
| 20260904235332 | 92 | 185 | 4.0 | 13.0 | 0.00 | 0.01 | 0.01 | 50 | 1013.9 |
| 20260904234831 | 92 | 178 | 5.0 | 13.0 | 0.00 | 0.01 | 0.01 | 50 | 1014.0 |
| 20260904234330 | 92 | 152 | 5.0 | 13.0 | 0.00 | 0.01 | 0.01 | 49 | 1013.9 |
| 20260904233830 | 92 | 140 | 5.0 | 10.0 | 0.00 | 0.01 | 0.01 | 51 | 1013.9 |
| 20260904233553 | 92 | 147 | 5.0 | 12.0 | 0.00 | 0.01 | 0.01 | 51 | 1013.9 |
| 20260904232830 | 92 | 138 | 5.0 | 12.0 | 0.00 | 0.01 | 0.01 | 52 | 1013.8 |
| 20260904232330 | 92 | 128 | 5.0 | 11.0 | 0.00 | 0.01 | 0.01 | 50 | 1013.8 |
| 20260904231830 | 93 | 188 | 5.0 | 11.0 | 0.00 | 0.01 | 0.01 | 50 | 1013.8 |
| 20260904231330 | 93 | 144 | 6.0 | 11.0 | 0.00 | 0.01 | 0.01 | 51 | 1013.9 |
| 20260904231300 | 93 | 170 | 6.0 | 11.0 | 0.00 | 0.01 | 0.01 | 50 | 1013.9 |
| 20260904231253 | 93 | 162 | 6.0 | 14.0 | 0.00 | 0.01 | 0.01 | 51 | 1014.0 |
| 20260904230315 | 93 | 175 | 7.0 | 14.0 | 0.00 | 0.01 | 0.01 | 51 | 1014.0 |
| 20260904225330 | 93 | 170 | 7.0 | 14.0 | 0.00 | 0.01 | 0.01 | 49 | 1014.0 |
| 20260904224823 | 93 | 124 | 6.0 | 14.0 | 0.00 | 0.01 | 0.01 | 48 | 1014.0 |
| 20260904224317 | 94 | 140 | 5.0 | 12.0 | 0.00 | 0.01 | 0.01 | 49 | 1014.1 |
| 20260904223814 | 93 | 164 | 6.0 | 14.0 | 0.00 | 0.01 | 0.01 | 50 | 1014.1 |
| 20260904223314 | 93 | 153 | 6.0 | 14.0 | 0.00 | 0.01 | 0.01 | 47 | 1014.1 |
| 20260904222811 | 93 | 213 | 6.0 | 13.0 | 0.00 | 0.01 | 0.01 | 50 | 1014.1 |
| 20260904222312 | 93 | 161 | 6.0 | 13.0 | 0.00 | 0.01 | 0.01 | 50 | 1014.1 |
| 20260904221812 | 93 | 122 | 6.0 | 15.0 | 0.00 | 0.01 | 0.01 | 49 | 1014.2 |
| 20260904221531 | 93 | 126 | 7.0 | 15.0 | 0.00 | 0.01 | 0.01 | 50 | 1014.1 |
| 20260904220808 | 93 | 138 | 7.0 | 15.0 | 0.00 | 0.01 | 0.01 | 51 | 1014.2 |
| 20260904220308 | 93 | 129 | 6.0 | 15.0 | 0.00 | 0.01 | 0.01 | 51 | 1014.2 |
| 20260904215808 | 93 | 117 | 6.0 | 13.0 | 0.00 | 0.01 | 0.01 | 51 | 1014.1 |
| 20260904215528 | 93 | 156 | 8.0 | 14.0 | 0.00 | 0.01 | 0.01 | 52 | 1014.2 |
| 20260904214805 | 93 | 138 | 8.0 | 14.0 | 0.00 | 0.01 | 0.01 | 50 | 1014.3 |
| 20260904214307 | 93 | 120 | 8.0 | 14.0 | 0.00 | 0.01 | 0.01 | 51 | 1014.4 |
| 20260904213805 | 93 | 174 | 8.0 | 14.0 | 0.00 | 0.01 | 0.01 | 53 | 1014.6 |
| 20260904213305 | 93 | 137 | 8.0 | 14.0 | 0.00 | 0.01 | 0.01 | 54 | 1014.6 |
| 20260904212803 | 93 | 85 | 7.0 | 16.0 | 0.00 | 0.01 | 0.01 | 55 | 1014.6 |
| 20260904212306 | 94 | 132 | 7.0 | 16.0 | 0.00 | 0.01 | 0.01 | 54 | 1014.6 |
| 20260904212036 | 94 | 155 | 6.0 | 12.0 | 0.00 | 0.01 | 0.01 | 56 | 1014.7 |
| 20260904211308 | 93 | 196 | 7.0 | 12.0 | 0.00 | 0.01 | 0.01 | 55 | 1014.7 |
| 20260904210807 | 93 | 141 | 8.0 | 14.0 | 0.00 | 0.01 | 0.01 | 54 | 1014.7 |
| 20260904210301 | 93 | 86 | 7.0 | 14.0 | 0.00 | 0.01 | 0.01 | 55 | 1014.8 |
| 20260904205754 | 93 | 123 | 9.0 | 17.0 | 0.00 | 0.01 | 0.01 | 58 | 1014.8 |
| 20260904205510 | 93 | 121 | 9.0 | 17.0 | 0.00 | 0.01 | 0.01 | 59 | 1014.8 |
| 20260904204738 | 93 | 111 | 6.0 | 13.0 | 0.00 | 0.01 | 0.01 | 58 | 1014.9 |
| 20260904204238 | 92 | 120 | 6.0 | 12.0 | 0.00 | 0.01 | 0.01 | 58 | 1015.0 |
| 20260904203737 | 92 | 169 | 5.0 | 12.0 | 0.00 | 0.01 | 0.01 | 60 | 1014.9 |
| 20260904203238 | 92 | 198 | 4.0 | 10.0 | 0.00 | 0.01 | 0.01 | 59 | 1015.0 |
| 20260904202956 | 92 | 132 | 4.0 | 10.0 | 0.00 | 0.01 | 0.01 | 60 | 1015.1 |
| 20260904202503 | 92 | 136 | 4.0 | 9.0 | 0.00 | 0.01 | 0.01 | 61 | 1015.1 |
| 20260904201740 | 92 | 150 | 3.0 | 9.0 | 0.00 | 0.01 | 0.01 | 60 | 1015.2 |
| 20260904201239 | 92 | 123 | 4.0 | 9.0 | 0.00 | 0.01 | 0.01 | 60 | 1015.2 |
| 20260904200736 | 91 | 89 | 6.0 | 12.0 | 0.00 | 0.01 | 0.01 | 59 | 1015.3 |
| 20260904200235 | 92 | 119 | 6.0 | 12.0 | 0.00 | 0.01 | 0.01 | 58 | 1015.4 |
| 20260904195734 | 92 | 201 | 5.0 | 12.0 | 0.00 | 0.01 | 0.01 | 59 | 1015.3 |
| 20260904195230 | 92 | 178 | 4.0 | 10.0 | 0.00 | 0.01 | 0.01 | 59 | 1015.4 |
| 20260904194731 | 92 | 129 | 5.0 | 10.0 | 0.00 | 0.01 | 0.01 | 60 | 1015.5 |
| 20260904194231 | 92 | 163 | 4.0 | 10.0 | 0.00 | 0.01 | 0.01 | 61 | 1015.5 |
| 20260904193955 | 92 | 164 | 3.0 | 10.0 | 0.00 | 0.01 | 0.01 | 60 | 1015.6 |
| 20260904193450 | 92 | 152 | 5.0 | 10.0 | 0.00 | 0.01 | 0.01 | 62 | 1015.7 |
| 20260904192731 | 92 | 171 | 6.0 | 10.0 | 0.00 | 0.01 | 0.01 | 63 | 1015.7 |
| 20260904192230 | 92 | 186 | 6.0 | 11.0 | 0.00 | 0.01 | 0.01 | 64 | 1015.8 |
| 20260904191731 | 92 | 140 | 6.0 | 13.0 | 0.00 | 0.01 | 0.01 | 62 | 1015.9 |
| 20260904191225 | 92 | 150 | 7.0 | 13.0 | 0.00 | 0.01 | 0.01 | 60 | 1015.9 |
| 20260904190719 | 92 | 172 | 8.0 | 15.0 | 0.00 | 0.01 | 0.01 | 62 | 1016.0 |
| 20260904190435 | 92 | 148 | 8.0 | 15.0 | 0.00 | 0.01 | 0.01 | 62 | 1016.0 |
| 20260904185717 | 92 | 121 | 7.0 | 14.0 | 0.00 | 0.01 | 0.01 | 63 | 1016.1 |
| 20260904185439 | 91 | 188 | 7.0 | 14.0 | 0.00 | 0.01 | 0.01 | 64 | 1016.1 |
| 20260904184717 | 91 | 99 | 7.0 | 14.0 | 0.00 | 0.01 | 0.01 | 66 | 1016.2 |
| 20260904184217 | 92 | 130 | 7.0 | 15.0 | 0.00 | 0.01 | 0.01 | 65 | 1016.2 |
| 20260904183720 | 92 | 180 | 7.0 | 15.0 | 0.00 | 0.01 | 0.01 | 63 | 1016.2 |
| 20260904183217 | 91 | 98 | 5.0 | 13.0 | 0.00 | 0.01 | 0.01 | 63 | 1016.2 |
| 20260904182717 | 91 | 170 | 5.0 | 13.0 | 0.00 | 0.01 | 0.01 | 63 | 1016.2 |
| 20260904182435 | 91 | 102 | 7.0 | 13.0 | 0.00 | 0.01 | 0.01 | 61 | 1016.2 |
| 20260904181717 | 91 | 167 | 6.0 | 13.0 | 0.00 | 0.01 | 0.01 | 64 | 1016.3 |
| 20260904181217 | 90 | 116 | 5.0 | 13.0 | 0.00 | 0.01 | 0.01 | 65 | 1016.2 |
| 20260904180718 | 89 | 168 | 4.0 | 12.0 | 0.00 | 0.01 | 0.01 | 67 | 1016.3 |
| 20260904180217 | 89 | 126 | 4.0 | 12.0 | 0.00 | 0.01 | 0.01 | 65 | 1016.3 |
| 20260904175717 | 90 | 205 | 5.0 | 10.0 | 0.00 | 0.01 | 0.01 | 66 | 1016.5 |
| 20260904175217 | 91 | 142 | 5.0 | 11.0 | 0.00 | 0.01 | 0.01 | 66 | 1016.7 |
| 20260904174717 | 91 | 256 | 6.0 | 11.0 | 0.00 | 0.01 | 0.01 | 64 | 1016.7 |
| 20260904174217 | 91 | 148 | 6.0 | 10.0 | 0.00 | 0.01 | 0.01 | 65 | 1016.8 |
| 20260904173711 | 91 | 182 | 5.0 | 11.0 | 0.00 | 0.01 | 0.01 | 66 | 1016.8 |
| 20260904173428 | 90 | 178 | 4.0 | 11.0 | 0.00 | 0.01 | 0.01 | 68 | 1016.9 |
| 20260904172705 | 89 | 134 | 4.0 | 12.0 | 0.00 | 0.01 | 0.01 | 69 | 1016.9 |
| 20260904172205 | 89 | 161 | 3.0 | 12.0 | 0.00 | 0.01 | 0.01 | 73 | 1017.0 |
| 20260904171705 | 88 | 161 | 3.0 | 12.0 | 0.00 | 0.01 | 0.01 | 74 | 1017.0 |
| 20260904171205 | 88 | 244 | 4.0 | 12.0 | 0.00 | 0.01 | 0.01 | 74 | 1017.2 |
| 20260904170705 | 88 | 260 | 3.0 | 8.0 | 0.00 | 0.01 | 0.01 | 74 | 1017.1 |
| 20260904170203 | 89 | 215 | 4.0 | 10.0 | 0.00 | 0.01 | 0.01 | 74 | 1017.1 |
| 20260904165703 | 89 | 173 | 5.0 | 10.0 | 0.00 | 0.01 | 0.01 | 74 | 1017.0 |
| 20260904165204 | 88 | 150 | 4.0 | 9.0 | 0.00 | 0.01 | 0.01 | 75 | 1017.1 |
| 20260904164704 | 87 | 172 | 4.0 | 9.0 | 0.00 | 0.01 | 0.01 | 75 | 1017.1 |
| 20260904164203 | 87 | 250 | 5.0 | 11.0 | 0.00 | 0.01 | 0.01 | 75 | 1017.1 |
| 20260904163705 | 87 | 236 | 5.0 | 11.0 | 0.00 | 0.01 | 0.01 | 75 | 1017.1 |
| 20260904163425 | 87 | 195 | 5.0 | 10.0 | 0.00 | 0.01 | 0.01 | 76 | 1017.0 |
| 20260904162703 | 87 | 190 | 6.0 | 11.0 | 0.00 | 0.01 | 0.01 | 77 | 1016.9 |
| 20260904162202 | 86 | 155 | 6.0 | 13.0 | 0.00 | 0.01 | 0.01 | 79 | 1016.9 |
| 20260904161702 | 86 | 164 | 6.0 | 14.0 | 0.00 | 0.01 | 0.01 | 79 | 1017.0 |
| 20260904161202 | 85 | 168 | 6.0 | 14.0 | 0.00 | 0.01 | 0.01 | 81 | 1017.1 |
| 20260904160702 | 85 | 165 | 5.0 | 12.0 | 0.00 | 0.01 | 0.01 | 82 | 1017.1 |
| 20260904160421 | 84 | 205 | 5.0 | 11.0 | 0.00 | 0.01 | 0.01 | 82 | 1016.9 |
| 20260904155702 | 83 | 192 | 5.0 | 11.0 | 0.00 | 0.01 | 0.01 | 83 | 1017.0 |
| 20260904155203 | 83 | 144 | 6.0 | 12.0 | 0.00 | 0.01 | 0.01 | 84 | 1017.1 |
| 20260904154702 | 83 | 163 | 7.0 | 14.0 | 0.00 | 0.01 | 0.01 | 86 | 1017.0 |
| 20260904154203 | 82 | 186 | 6.0 | 14.0 | 0.00 | 0.01 | 0.01 | 85 | 1017.0 |
| 20260904153702 | 82 | 221 | 5.0 | 13.0 | 0.00 | 0.01 | 0.01 | 88 | 1016.9 |
| 20260904153203 | 81 | 180 | 5.0 | 10.0 | 0.00 | 0.01 | 0.01 | 89 | 1016.9 |
| 20260904152926 | 81 | 234 | 5.0 | 14.0 | 0.00 | 0.01 | 0.01 | 89 | 1016.8 |
| 20260904152202 | 81 | 191 | 5.0 | 14.0 | 0.00 | 0.01 | 0.01 | 90 | 1016.9 |
| 20260904151702 | 81 | 205 | 4.0 | 9.0 | 0.00 | 0.01 | 0.01 | 91 | 1016.9 |
| 20260904151203 | 80 | 183 | 4.0 | 9.0 | 0.00 | 0.01 | 0.01 | 92 | 1016.9 |
| 20260904150919 | 80 | 193 | 4.0 | 9.0 | 0.00 | 0.01 | 0.01 | 92 | 1016.9 |
| 20260904150427 | 80 | 189 | 4.0 | 8.0 | 0.00 | 0.01 | 0.01 | 92 | 1016.9 |
| 20260904145703 | 80 | 198 | 4.0 | 13.0 | 0.00 | 0.01 | 0.01 | 93 | 1016.9 |
| 20260904145202 | 79 | 187 | 4.0 | 13.0 | 0.00 | 0.01 | 0.01 | 94 | 1016.9 |
| 20260904144703 | 79 | 200 | 4.0 | 13.0 | 0.00 | 0.01 | 0.01 | 95 | 1017.0 |
| 20260904144202 | 79 | 219 | 4.0 | 13.0 | 0.00 | 0.01 | 0.01 | 94 | 1016.9 |
| 20260904143702 | 79 | 194 | 4.0 | 10.0 | 0.00 | 0.01 | 0.01 | 95 | 1016.8 |
| 20260904143420 | 79 | 183 | 5.0 | 11.0 | 0.01 | 0.01 | 0.01 | 95 | 1016.8 |
| 20260904142703 | 78 | 209 | 5.0 | 11.0 | 0.01 | 0.01 | 0.01 | 95 | 1016.7 |
| 20260904142201 | 78 | 199 | 4.0 | 10.0 | 0.01 | 0.01 | 0.01 | 96 | 1016.7 |
| 20260904141703 | 78 | 194 | 3.0 | 8.0 | 0.01 | 0.01 | 0.01 | 95 | 1016.7 |
| 20260904141427 | 78 | 201 | 3.0 | 8.0 | 0.01 | 0.01 | 0.01 | 95 | 1016.8 |
| 20260904140702 | 78 | 193 | 3.0 | 8.0 | 0.01 | 0.01 | 0.01 | 96 | 1016.7 |
| 20260904140202 | 78 | 209 | 3.0 | 7.0 | 0.01 | 0.01 | 0.01 | 95 | 1016.8 |
| 20260904135702 | 78 | 207 | 3.0 | 7.0 | 0.01 | 0.01 | 0.01 | 95 | 1016.8 |
| 20260904135649 | 78 | 193 | 3.0 | 8.0 | 0.01 | 0.01 | 0.01 | 95 | 1016.8 |
| 20260904134703 | 78 | 187 | 4.0 | 10.0 | 0.01 | 0.01 | 0.01 | 95 | 1016.7 |
| 20260904134202 | 78 | 192 | 4.0 | 10.0 | 0.01 | 0.01 | 0.01 | 94 | 1016.7 |
| 20260904133703 | 78 | 196 | 3.0 | 9.0 | 0.01 | 0.01 | 0.01 | 94 | 1016.7 |
| 20260904133202 | 78 | 180 | 3.0 | 7.0 | 0.00 | 0.00 | 0.00 | 94 | 1016.9 |
| 20260904132702 | 78 | 180 | 2.0 | 7.0 | 0.00 | 0.00 | 0.00 | 94 | 1016.9 |
| 20260904132202 | 78 | 180 | 2.0 | 7.0 | 0.00 | 0.00 | 0.00 | 93 | 1016.9 |
| 20260904131702 | 78 | 161 | 2.0 | 7.0 | 0.00 | 0.00 | 0.00 | 93 | 1016.9 |
| 20260904131203 | 78 | 181 | 2.0 | 6.0 | 0.00 | 0.00 | 0.00 | 93 | 1016.8 |
| 20260904130703 | 78 | 165 | 2.0 | 6.0 | 0.00 | 0.00 | 0.00 | 93 | 1016.9 |
| 20260904130429 | 78 | 165 | 2.0 | 6.0 | 0.00 | 0.00 | 0.00 | 93 | 1016.9 |
| 20260904125703 | 78 | 185 | 3.0 | 7.0 | 0.00 | 0.00 | 0.00 | 92 | 1016.9 |
| 20260904125425 | 78 | 163 | 3.0 | 7.0 | 0.00 | 0.00 | 0.00 | 92 | 1016.8 |
| 20260904124927 | 78 | 157 | 3.0 | 7.0 | 0.00 | 0.00 | 0.00 | 92 | 1016.9 |
| 20260904124202 | 78 | 155 | 3.0 | 7.0 | 0.00 | 0.00 | 0.00 | 92 | 1016.9 |
| 20260904123926 | 78 | 159 | 3.0 | 5.0 | 0.00 | 0.00 | 0.00 | 92 | 1016.9 |
| 20260904123423 | 79 | 150 | 3.0 | 7.0 | 0.00 | 0.00 | 0.00 | 92 | 1016.9 |
| 20260904122703 | 78 | 153 | 3.0 | 7.0 | 0.00 | 0.00 | 0.00 | 92 | 1016.8 |
| 20260904122202 | 78 | 127 | 4.0 | 8.0 | 0.00 | 0.00 | 0.00 | 92 | 1016.8 |
| 20260904121658 | 78 | 128 | 3.0 | 8.0 | 0.00 | 0.00 | 0.00 | 93 | 1016.5 |
| 20260904121152 | 78 | 140 | 4.0 | 8.0 | 0.00 | 0.00 | 0.00 | 93 | 1016.3 |
| 20260904120646 | 78 | 133 | 3.0 | 8.0 | 0.00 | 0.00 | 0.00 | 93 | 1016.1 |
| 20260904120146 | 78 | 142 | 3.0 | 7.0 | 0.00 | 0.00 | 0.00 | 93 | 1016.0 |
| 20260904115645 | 78 | 149 | 4.0 | 9.0 | 0.00 | 0.00 | 0.00 | 93 | 1015.9 |
| 20260904115408 | 78 | 157 | 4.0 | 9.0 | 0.00 | 0.00 | 0.00 | 93 | 1015.9 |
| 20260904114642 | 78 | 159 | 4.0 | 10.0 | 0.00 | 0.00 | 0.00 | 93 | 1015.7 |
| 20260904114139 | 78 | 190 | 4.0 | 10.0 | 0.00 | 0.00 | 0.00 | 93 | 1015.5 |
| 20260904113638 | 78 | 157 | 4.0 | 9.0 | 0.00 | 0.00 | 0.00 | 93 | 1015.5 |
| 20260904113138 | 78 | 157 | 5.0 | 9.0 | 0.00 | 0.00 | 0.00 | 93 | 1015.3 |
| 20260904112636 | 78 | 144 | 5.0 | 9.0 | 0.00 | 0.00 | 0.00 | 92 | 1015.3 |
| 20260904112137 | 78 | 153 | 5.0 | 8.0 | 0.00 | 0.00 | 0.00 | 92 | 1015.2 |
| 20260904111637 | 78 | 179 | 4.0 | 10.0 | 0.00 | 0.00 | 0.00 | 92 | 1015.1 |
| 20260904111137 | 78 | 159 | 4.0 | 10.0 | 0.00 | 0.00 | 0.00 | 92 | 1015.2 |
| 20260904110900 | 78 | 135 | 4.0 | 9.0 | 0.00 | 0.00 | 0.00 | 92 | 1015.2 |
| 20260904110137 | 78 | 138 | 4.0 | 9.0 | 0.00 | 0.00 | 0.00 | 92 | 1015.2 |
| 20260904105636 | 78 | 173 | 4.0 | 10.0 | 0.00 | 0.00 | 0.00 | 92 | 1015.1 |
| 20260904105135 | 78 | 140 | 5.0 | 10.0 | 0.00 | 0.00 | 0.00 | 92 | 1015.1 |
| 20260904105116 | 78 | 161 | 5.0 | 11.0 | 0.00 | 0.00 | 0.00 | 92 | 1015.0 |
| 20260904104134 | 78 | 171 | 5.0 | 11.0 | 0.00 | 0.00 | 0.00 | 92 | 1015.0 |
| 20260904103632 | 78 | 164 | 4.0 | 9.0 | 0.00 | 0.00 | 0.00 | 91 | 1014.9 |
| 20260904103131 | 79 | 171 | 4.0 | 9.0 | 0.00 | 0.00 | 0.00 | 91 | 1015.0 |
| 20260904102628 | 79 | 146 | 4.0 | 9.0 | 0.00 | 0.00 | 0.00 | 90 | 1014.9 |
| 20260904102121 | 79 | 154 | 4.0 | 8.0 | 0.00 | 0.00 | 0.00 | 90 | 1015.0 |
| 20260904102107 | 79 | 194 | 3.0 | 6.0 | 0.00 | 0.00 | 0.00 | 90 | 1015.1 |
| 20260904101110 | 79 | 173 | 3.0 | 9.0 | 0.00 | 0.00 | 0.00 | 90 | 1015.0 |
| 20260904100610 | 79 | 178 | 3.0 | 9.0 | 0.00 | 0.00 | 0.00 | 90 | 1014.9 |
| 20260904100108 | 79 | 173 | 4.0 | 9.0 | 0.00 | 0.00 | 0.00 | 89 | 1014.9 |
| 20260904095607 | 79 | 141 | 4.0 | 11.0 | 0.00 | 0.00 | 0.00 | 89 | 1014.8 |
| 20260904095106 | 79 | 169 | 5.0 | 11.0 | 0.00 | 0.00 | 0.00 | 89 | 1014.8 |
| 20260904094606 | 79 | 185 | 4.0 | 10.0 | 0.00 | 0.00 | 0.00 | 89 | 1014.7 |
| 20260904094107 | 79 | 182 | 4.0 | 9.0 | 0.00 | 0.00 | 0.00 | 89 | 1014.7 |
| 20260904093828 | 79 | 170 | 4.0 | 8.0 | 0.00 | 0.00 | 0.00 | 89 | 1014.7 |
| 20260904093104 | 79 | 172 | 4.0 | 9.0 | 0.00 | 0.00 | 0.00 | 89 | 1014.7 |
| 20260904092606 | 79 | 183 | 4.0 | 9.0 | 0.00 | 0.00 | 0.00 | 89 | 1014.7 |
| 20260904092104 | 79 | 161 | 4.0 | 8.0 | 0.00 | 0.00 | 0.00 | 89 | 1014.7 |
| 20260904091604 | 79 | 195 | 4.0 | 10.0 | 0.00 | 0.00 | 0.00 | 88 | 1014.7 |
| 20260904091104 | 79 | 173 | 5.0 | 11.0 | 0.00 | 0.00 | 0.00 | 88 | 1014.7 |
| 20260904090605 | 79 | 209 | 5.0 | 11.0 | 0.00 | 0.00 | 0.00 | 88 | 1014.7 |
| 20260904090104 | 79 | 186 | 4.0 | 10.0 | 0.00 | 0.00 | 0.00 | 88 | 1014.8 |
| 20260904085833 | 79 | 189 | 5.0 | 10.0 | 0.00 | 0.00 | 0.00 | 88 | 1014.8 |
| 20260904085103 | 80 | 181 | 5.0 | 10.0 | 0.00 | 0.00 | 0.00 | 88 | 1014.8 |
| 20260904084603 | 80 | 183 | 4.0 | 13.0 | 0.00 | 0.00 | 0.00 | 88 | 1014.8 |
| 20260904084058 | 80 | 192 | 5.0 | 13.0 | 0.00 | 0.00 | 0.00 | 88 | 1014.8 |
| 20260904083552 | 80 | 190 | 6.0 | 17.0 | 0.00 | 0.00 | 0.00 | 88 | 1014.7 |
| 20260904083046 | 80 | 193 | 7.0 | 17.0 | 0.00 | 0.00 | 0.00 | 88 | 1014.7 |
| 20260904082541 | 80 | 174 | 7.0 | 12.0 | 0.00 | 0.00 | 0.00 | 87 | 1014.8 |
| 20260904082038 | 80 | 175 | 6.0 | 12.0 | 0.00 | 0.00 | 0.00 | 87 | 1014.8 |
| 20260904081536 | 80 | 189 | 6.0 | 12.0 | 0.00 | 0.00 | 0.00 | 87 | 1014.8 |
| 20260904081036 | 80 | 180 | 6.0 | 13.0 | 0.00 | 0.00 | 0.00 | 87 | 1014.9 |
| 20260904080544 | 80 | 169 | 5.0 | 15.0 | 0.00 | 0.00 | 0.00 | 87 | 1015.0 |
| 20260904080537 | 80 | 192 | 5.0 | 15.0 | 0.00 | 0.00 | 0.00 | 87 | 1014.9 |
| 20260904075534 | 80 | 178 | 6.0 | 13.0 | 0.00 | 0.00 | 0.00 | 87 | 1014.9 |
| 20260904075034 | 80 | 178 | 5.0 | 12.0 | 0.00 | 0.00 | 0.00 | 87 | 1014.9 |
| 20260904074532 | 80 | 207 | 4.0 | 11.0 | 0.00 | 0.00 | 0.00 | 87 | 1014.9 |
| 20260904074032 | 80 | 173 | 6.0 | 17.0 | 0.00 | 0.00 | 0.00 | 87 | 1014.8 |
| 20260904073532 | 80 | 169 | 5.0 | 17.0 | 0.00 | 0.00 | 0.00 | 87 | 1014.8 |
| 20260904073032 | 80 | 209 | 4.0 | 11.0 | 0.00 | 0.00 | 0.00 | 87 | 1014.8 |
| 20260904072532 | 80 | 184 | 6.0 | 14.0 | 0.00 | 0.00 | 0.00 | 87 | 1014.8 |
| 20260904072034 | 80 | 157 | 6.0 | 14.0 | 0.00 | 0.00 | 0.00 | 87 | 1014.9 |
| 20260904071754 | 80 | 194 | 7.0 | 13.0 | 0.00 | 0.00 | 0.00 | 87 | 1015.0 |
| 20260904071032 | 80 | 184 | 7.0 | 15.0 | 0.00 | 0.00 | 0.00 | 87 | 1015.0 |
| 20260904070530 | 80 | 172 | 6.0 | 15.0 | 0.00 | 0.00 | 0.00 | 86 | 1015.1 |
| 20260904070037 | 80 | 214 | 6.0 | 13.0 | 0.00 | 0.00 | 0.00 | 86 | 1015.0 |
| 20260904065530 | 80 | 186 | 7.0 | 14.0 | 0.00 | 0.00 | 0.00 | 86 | 1015.0 |
| 20260904065035 | 80 | 205 | 7.0 | 14.0 | 0.00 | 0.00 | 0.00 | 86 | 1015.1 |
| 20260904065009 | 80 | 138 | 6.0 | 13.0 | 0.00 | 0.00 | 0.00 | 86 | 1015.2 |
| 20260904064035 | 80 | 160 | 6.0 | 15.0 | 0.00 | 0.00 | 0.00 | 86 | 1015.2 |
| 20260904063751 | 80 | 182 | 5.0 | 15.0 | 0.00 | 0.00 | 0.00 | 86 | 1015.2 |
| 20260904063030 | 80 | 180 | 6.0 | 16.0 | 0.00 | 0.00 | 0.00 | 85 | 1015.2 |
| 20260904062530 | 80 | 180 | 7.0 | 20.0 | 0.00 | 0.00 | 0.00 | 85 | 1015.2 |
| 20260904062033 | 80 | 166 | 8.0 | 20.0 | 0.00 | 0.00 | 0.00 | 85 | 1015.1 |
| 20260904061755 | 80 | 140 | 8.0 | 20.0 | 0.00 | 0.00 | 0.00 | 85 | 1015.1 |
| 20260904061033 | 80 | 194 | 8.0 | 20.0 | 0.00 | 0.00 | 0.00 | 85 | 1015.0 |
| 20260904060758 | 80 | 154 | 8.0 | 16.0 | 0.00 | 0.00 | 0.00 | 85 | 1015.1 |
| 20260904060038 | 80 | 157 | 7.0 | 16.0 | 0.00 | 0.00 | 0.00 | 85 | 1015.0 |
| 20260904055534 | 80 | 140 | 6.0 | 14.0 | 0.00 | 0.00 | 0.00 | 85 | 1015.1 |
| 20260904055031 | 80 | 175 | 6.0 | 13.0 | 0.00 | 0.00 | 0.00 | 85 | 1015.1 |
| 20260904054530 | 80 | 181 | 6.0 | 13.0 | 0.00 | 0.00 | 0.00 | 85 | 1015.0 |
| 20260904054030 | 80 | 165 | 6.0 | 16.0 | 0.00 | 0.00 | 0.00 | 84 | 1015.1 |
| 20260904053530 | 80 | 132 | 7.0 | 16.0 | 0.00 | 0.00 | 0.00 | 84 | 1015.0 |
| 20260904053030 | 80 | 163 | 8.0 | 16.0 | 0.00 | 0.00 | 0.00 | 84 | 1015.1 |
| 20260904052752 | 80 | 162 | 8.0 | 16.0 | 0.00 | 0.00 | 0.00 | 84 | 1015.0 |
| 20260904052039 | 80 | 155 | 6.0 | 16.0 | 0.00 | 0.00 | 0.00 | 84 | 1014.9 |
| 20260904052033 | 80 | 108 | 6.0 | 12.0 | 0.00 | 0.00 | 0.00 | 84 | 1014.9 |
| 20260904051517 | 80 | 161 | 8.0 | 16.0 | 0.00 | 0.00 | 0.00 | 84 | 1014.8 |
| 20260904050531 | 80 | 155 | 7.0 | 14.0 | 0.00 | 0.00 | 0.00 | 83 | 1014.8 |
| 20260904050031 | 80 | 127 | 6.0 | 14.0 | 0.00 | 0.00 | 0.00 | 83 | 1014.8 |
| 20260904045749 | 80 | 142 | 7.0 | 14.0 | 0.00 | 0.00 | 0.00 | 83 | 1014.9 |
| 20260904045031 | 80 | 138 | 7.0 | 14.0 | 0.00 | 0.00 | 0.00 | 84 | 1014.9 |
| 20260904044530 | 80 | 151 | 6.0 | 12.0 | 0.00 | 0.00 | 0.00 | 84 | 1014.9 |
| 20260904044256 | 80 | 138 | 5.0 | 10.0 | 0.00 | 0.00 | 0.00 | 84 | 1014.9 |
| 20260904043528 | 80 | 144 | 5.0 | 11.0 | 0.00 | 0.00 | 0.00 | 84 | 1014.8 |
| 20260904043022 | 80 | 144 | 5.0 | 14.0 | 0.00 | 0.00 | 0.00 | 84 | 1014.9 |
| 20260904042516 | 80 | 136 | 6.0 | 14.0 | 0.00 | 0.00 | 0.00 | 84 | 1014.8 |
| 20260904042011 | 80 | 132 | 6.0 | 14.0 | 0.00 | 0.00 | 0.00 | 84 | 1014.7 |
| 20260904041510 | 80 | 133 | 7.0 | 14.0 | 0.00 | 0.00 | 0.00 | 84 | 1014.7 |
| 20260904041232 | 80 | 130 | 7.0 | 13.0 | 0.00 | 0.00 | 0.00 | 83 | 1014.7 |
| 20260904040510 | 80 | 200 | 7.0 | 15.0 | 0.00 | 0.00 | 0.00 | 83 | 1014.7 |
| 20260904040010 | 80 | 130 | 6.0 | 15.0 | 0.00 | 0.00 | 0.00 | 83 | 1014.8 |
| 20260904035510 | 80 | 132 | 6.0 | 15.0 | 0.00 | 0.00 | 0.00 | 82 | 1014.8 |
| 20260904035009 | 81 | 148 | 7.0 | 14.0 | 0.00 | 0.00 | 0.00 | 82 | 1014.8 |
| 20260904034508 | 81 | 132 | 7.0 | 17.0 | 0.00 | 0.00 | 0.00 | 82 | 1014.8 |
| 20260904034008 | 81 | 155 | 8.0 | 17.0 | 0.00 | 0.00 | 0.00 | 82 | 1014.9 |
| 20260904033510 | 81 | 146 | 9.0 | 20.0 | 0.00 | 0.00 | 0.00 | 81 | 1014.8 |
| 20260904033006 | 81 | 153 | 9.0 | 20.0 | 0.00 | 0.00 | 0.00 | 81 | 1014.8 |
| 20260904032506 | 81 | 144 | 9.0 | 16.0 | 0.00 | 0.00 | 0.00 | 80 | 1014.8 |
| 20260904032006 | 81 | 144 | 9.0 | 16.0 | 0.00 | 0.00 | 0.00 | 80 | 1014.7 |
| 20260904031506 | 82 | 181 | 9.0 | 16.0 | 0.00 | 0.00 | 0.00 | 79 | 1014.6 |
| 20260904031005 | 82 | 127 | 9.0 | 15.0 | 0.00 | 0.00 | 0.00 | 79 | 1014.7 |
| 20260904030504 | 82 | 133 | 7.0 | 15.0 | 0.00 | 0.00 | 0.00 | 78 | 1014.7 |
| 20260904030007 | 82 | 190 | 6.0 | 15.0 | 0.00 | 0.00 | 0.00 | 77 | 1014.6 |
| 20260904025502 | 82 | 134 | 6.0 | 12.0 | 0.00 | 0.00 | 0.00 | 77 | 1014.6 |
| 20260904025005 | 82 | 155 | 7.0 | 15.0 | 0.00 | 0.00 | 0.00 | 77 | 1014.5 |
| 20260904024458 | 82 | 185 | 8.0 | 15.0 | 0.00 | 0.00 | 0.00 | 76 | 1014.5 |
| 20260904023952 | 83 | 123 | 7.0 | 17.0 | 0.00 | 0.00 | 0.00 | 76 | 1014.4 |
| 20260904023446 | 83 | 159 | 6.0 | 17.0 | 0.00 | 0.00 | 0.00 | 76 | 1014.2 |
| 20260904023206 | 83 | 136 | 6.0 | 13.0 | 0.00 | 0.00 | 0.00 | 76 | 1014.2 |
| 20260904022444 | 83 | 130 | 6.0 | 13.0 | 0.00 | 0.00 | 0.00 | 76 | 1014.0 |
| 20260904021944 | 83 | 138 | 8.0 | 17.0 | 0.00 | 0.00 | 0.00 | 76 | 1014.0 |
| 20260904021442 | 83 | 126 | 8.0 | 17.0 | 0.00 | 0.00 | 0.00 | 76 | 1013.9 |
| 20260904020942 | 83 | 103 | 8.0 | 17.0 | 0.00 | 0.00 | 0.00 | 76 | 1013.9 |
| 20260904020700 | 83 | 117 | 9.0 | 17.0 | 0.00 | 0.00 | 0.00 | 75 | 1013.8 |
| 20260904015942 | 83 | 160 | 10.0 | 17.0 | 0.00 | 0.00 | 0.00 | 75 | 1013.7 |
| 20260904015443 | 84 | 123 | 9.0 | 17.0 | 0.00 | 0.00 | 0.00 | 74 | 1013.8 |
| 20260904014942 | 84 | 149 | 9.0 | 17.0 | 0.00 | 0.00 | 0.00 | 74 | 1013.6 |
| 20260904014443 | 84 | 125 | 9.0 | 17.0 | 0.00 | 0.00 | 0.00 | 74 | 1013.6 |
| 20260904013943 | 84 | 128 | 8.0 | 16.0 | 0.00 | 0.00 | 0.00 | 74 | 1013.7 |
| 20260904013704 | 84 | 156 | 8.0 | 15.0 | 0.00 | 0.00 | 0.00 | 74 | 1013.7 |
| 20260904012943 | 84 | 126 | 8.0 | 14.0 | 0.00 | 0.00 | 0.00 | 74 | 1013.8 |
| 20260904012442 | 84 | 129 | 7.0 | 14.0 | 0.00 | 0.00 | 0.00 | 74 | 1013.7 |
| 20260904011942 | 85 | 182 | 8.0 | 15.0 | 0.00 | 0.00 | 0.00 | 74 | 1013.6 |
| 20260904011439 | 85 | 123 | 8.0 | 15.0 | 0.00 | 0.00 | 0.00 | 74 | 1013.6 |
| 20260904010940 | 85 | 115 | 8.0 | 13.0 | 0.00 | 0.00 | 0.00 | 74 | 1013.5 |
| 20260904010440 | 85 | 134 | 8.0 | 13.0 | 0.00 | 0.00 | 0.00 | 74 | 1013.6 |
| 20260904005940 | 85 | 112 | 7.0 | 14.0 | 0.00 | 0.00 | 0.00 | 73 | 1013.6 |
| 20260904005440 | 85 | 126 | 7.0 | 14.0 | 0.00 | 0.00 | 0.00 | 73 | 1013.5 |
| 20260904004938 | 86 | 170 | 8.0 | 14.0 | 0.00 | 0.00 | 0.00 | 73 | 1013.5 |
| 20260904004438 | 86 | 145 | 9.0 | 14.0 | 0.00 | 0.00 | 0.00 | 72 | 1013.3 |
| 20260904003939 | 86 | 120 | 8.0 | 17.0 | 0.00 | 0.00 | 0.00 | 72 | 1013.2 |
| 20260904003434 | 86 | 113 | 9.0 | 17.0 | 0.00 | 0.00 | 0.00 | 72 | 1013.0 |